createdAt,value
2022-10-13T00:01:14.712Z,90.24
2022-10-13T00:03:46.229Z,90.13
2022-10-13T00:06:16.719Z,90.09
2022-10-13T00:08:43.713Z,90.07
2022-10-13T00:11:19.661Z,90.16
2022-10-13T00:13:47.289Z,90.46
2022-10-13T00:16:17.142Z,90.19
2022-10-13T00:18:44.347Z,90.19
2022-10-13T00:21:15.692Z,90.30
2022-10-13T00:23:42.973Z,90.24
2022-10-13T00:26:14.216Z,90.29
2022-10-13T00:28:41.846Z,90.45
2022-10-13T00:31:23.256Z,90.44
2022-10-13T00:33:50.296Z,90.34
2022-10-13T00:36:17.625Z,90.24
2022-10-13T00:38:44.417Z,90.42
2022-10-13T00:41:11.540Z,90.62
2022-10-13T00:44:00.198Z,90.62
2022-10-13T00:46:37.223Z,90.33
2022-10-13T00:49:12.685Z,90.45
2022-10-13T00:51:47.423Z,90.52
2022-10-13T00:54:22.590Z,90.69
2022-10-13T00:56:51.008Z,91.01
2022-10-13T00:59:27.334Z,90.59
2022-10-13T01:01:54.460Z,90.33
2022-10-13T01:04:26.276Z,90.48
2022-10-13T01:06:55.007Z,90.40
2022-10-13T01:09:21.831Z,90.44
2022-10-13T01:12:22.673Z,90.63
2022-10-13T01:15:08.316Z,90.90
2022-10-13T01:17:51.270Z,90.75
2022-10-13T01:20:51.233Z,90.76
2022-10-13T01:23:36.289Z,90.59
2022-10-13T01:26:36.430Z,90.78
2022-10-13T01:29:32.244Z,90.58
2022-10-13T01:32:08.463Z,90.54
2022-10-13T01:35:30.154Z,90.65
2022-10-13T01:38:08.343Z,90.79
2022-10-13T01:40:55.778Z,90.43
2022-10-13T01:43:30.340Z,90.51
2022-10-13T01:46:16.042Z,90.56
2022-10-13T01:48:45.697Z,90.68
2022-10-13T01:51:20.367Z,90.54
2022-10-13T01:53:48.533Z,90.60
2022-10-13T01:56:16.162Z,90.68
2022-10-13T01:58:43.421Z,90.66
2022-10-13T02:01:41.653Z,90.84
2022-10-13T02:04:46.137Z,90.87
2022-10-13T02:07:30.167Z,90.65
2022-10-13T02:10:23.044Z,90.67
2022-10-13T02:13:00.404Z,90.88
2022-10-13T02:15:41.358Z,90.66
2022-10-13T02:18:09.961Z,90.99
2022-10-13T02:20:37.602Z,90.98
2022-10-13T02:23:16.236Z,90.83
2022-10-13T02:25:44.428Z,90.77
2022-10-13T02:28:13.864Z,90.83
2022-10-13T02:30:41.500Z,90.86
2022-10-13T02:33:09.695Z,91.00
2022-10-13T02:35:36.557Z,91.07
2022-10-13T02:38:03.609Z,90.88
2022-10-13T02:40:30.692Z,91.09
2022-10-13T02:42:57.597Z,90.79
2022-10-13T02:45:24.416Z,90.57
2022-10-13T02:47:51.562Z,90.42
2022-10-13T02:50:18.533Z,90.07
2022-10-13T02:52:45.689Z,89.91
2022-10-13T02:55:12.525Z,89.97
2022-10-13T02:57:39.364Z,89.53
2022-10-13T03:00:07.497Z,89.67
2022-10-13T03:02:34.548Z,89.74
2022-10-13T03:05:01.721Z,89.81
2022-10-13T03:07:28.545Z,89.84
2022-10-13T03:09:55.385Z,89.85
2022-10-13T03:12:22.567Z,89.74
2022-10-13T03:14:49.653Z,89.81
2022-10-13T03:17:16.468Z,89.70
2022-10-13T03:19:43.357Z,89.81
2022-10-13T03:22:10.328Z,90.13
2022-10-13T03:24:37.456Z,90.22
2022-10-13T03:27:04.503Z,90.85
2022-10-13T03:29:31.304Z,91.28
2022-10-13T03:31:58.219Z,91.34
2022-10-13T03:34:25.067Z,91.72
2022-10-13T03:36:52.213Z,91.78
2022-10-13T03:39:19.025Z,91.75
2022-10-13T03:41:46.331Z,91.76
2022-10-13T03:44:13.850Z,91.75
2022-10-13T03:46:40.780Z,91.86
2022-10-13T03:49:07.589Z,92.04
2022-10-13T03:51:34.401Z,91.93
2022-10-13T03:54:01.213Z,91.92
2022-10-13T03:56:28.815Z,92.07
2022-10-13T03:58:58.919Z,92.15
2022-10-13T04:01:29.335Z,91.96
2022-10-13T04:03:57.957Z,91.70
2022-10-13T04:06:26.533Z,91.93
2022-10-13T04:08:53.974Z,91.90
2022-10-13T04:11:21.980Z,91.85
2022-10-13T04:13:48.936Z,91.89
2022-10-13T04:16:23.688Z,91.69
2022-10-13T04:19:03.575Z,92.11
2022-10-13T04:21:33.755Z,91.63
2022-10-13T04:24:01.863Z,91.77
2022-10-13T04:26:32.472Z,91.96
2022-10-13T04:29:00.485Z,91.96
2022-10-13T04:31:29.657Z,92.21
2022-10-13T04:33:57.807Z,92.29
2022-10-13T04:36:25.441Z,92.33
2022-10-13T04:38:53.825Z,91.84
2022-10-13T04:41:21.852Z,91.86
2022-10-13T04:43:50.991Z,91.93
2022-10-13T04:46:27.635Z,91.98
2022-10-13T04:48:55.816Z,91.86
2022-10-13T04:51:25.983Z,91.73
2022-10-13T04:54:03.057Z,91.72
2022-10-13T04:56:30.075Z,91.65
2022-10-13T04:58:56.931Z,91.86
2022-10-13T05:01:25.342Z,91.78
2022-10-13T05:03:59.138Z,91.92
2022-10-13T05:06:41.619Z,91.94
2022-10-13T05:09:19.240Z,91.94
2022-10-13T05:11:45.981Z,92.34
2022-10-13T05:14:12.722Z,92.14
2022-10-13T05:16:39.708Z,92.37
2022-10-13T05:19:06.532Z,92.42
2022-10-13T05:21:33.363Z,92.20
2022-10-13T05:24:02.471Z,92.26
2022-10-13T05:26:32.135Z,92.35
2022-10-13T05:29:00.950Z,92.34
2022-10-13T05:31:30.556Z,92.23
2022-10-13T05:33:57.672Z,92.29
2022-10-13T05:36:32.445Z,92.55
2022-10-13T05:39:03.794Z,92.16
2022-10-13T05:41:31.556Z,92.11
2022-10-13T05:44:02.852Z,91.89
2022-10-13T05:46:29.681Z,92.05
2022-10-13T05:48:56.800Z,91.98
2022-10-13T05:51:32.904Z,91.91
2022-10-13T05:54:07.069Z,91.99
2022-10-13T05:56:42.524Z,92.12
2022-10-13T05:59:14.375Z,91.92
2022-10-13T06:01:42.895Z,92.12
2022-10-13T06:04:21.117Z,91.98
2022-10-13T06:06:49.333Z,91.85
2022-10-13T06:09:16.619Z,91.79
2022-10-13T06:11:43.501Z,91.85
2022-10-13T06:14:10.272Z,91.71
2022-10-13T06:16:37.235Z,91.84
2022-10-13T06:19:05.578Z,91.81
2022-10-13T06:21:35.226Z,91.69
2022-10-13T06:24:02.879Z,91.92
2022-10-13T06:26:29.713Z,91.85
2022-10-13T06:28:59.682Z,91.81
2022-10-13T06:31:27.124Z,91.76
2022-10-13T06:33:54.472Z,91.97
2022-10-13T06:36:21.908Z,91.93
2022-10-13T06:38:48.737Z,91.97
2022-10-13T06:41:15.597Z,91.86
2022-10-13T06:43:42.585Z,91.96
2022-10-13T06:46:10.035Z,91.77
2022-10-13T06:48:37.139Z,92.09
2022-10-13T06:51:09.966Z,91.99
2022-10-13T06:53:37.452Z,91.94
2022-10-13T06:56:07.076Z,91.88
2022-10-13T06:58:38.165Z,91.87
2022-10-13T07:01:06.664Z,92.11
2022-10-13T07:03:33.965Z,91.92
2022-10-13T07:06:06.235Z,91.87
2022-10-13T07:08:34.722Z,92.00
2022-10-13T07:11:16.261Z,92.26
2022-10-13T07:13:46.620Z,92.16
2022-10-13T07:16:17.026Z,92.07
2022-10-13T07:18:44.285Z,92.07
2022-10-13T07:21:11.087Z,92.15
2022-10-13T07:23:38.093Z,92.28
2022-10-13T07:26:14.678Z,92.32
2022-10-13T07:28:43.332Z,92.23
2022-10-13T07:31:20.145Z,92.36
2022-10-13T07:33:50.044Z,92.46
2022-10-13T07:36:17.306Z,92.45
2022-10-13T07:38:44.546Z,92.10
2022-10-13T07:41:12.768Z,92.47
2022-10-13T07:43:39.710Z,92.52
2022-10-13T07:46:07.753Z,92.12
2022-10-13T07:48:35.416Z,91.58
2022-10-13T07:51:12.541Z,91.35
2022-10-13T07:53:41.349Z,91.42
2022-10-13T07:56:12.233Z,91.30
2022-10-13T07:58:41.547Z,91.55
2022-10-13T08:01:09.903Z,91.28
2022-10-13T08:06:24.093Z,91.15
2022-10-13T08:08:50.931Z,91.56
2022-10-13T08:11:18.327Z,91.62
2022-10-13T08:13:52.625Z,91.14
2022-10-13T08:16:20.136Z,91.19
2022-10-13T08:18:47.387Z,91.23
2022-10-13T08:24:09.353Z,91.38
2022-10-13T08:26:36.303Z,91.30
2022-10-13T08:29:20.608Z,91.17
2022-10-13T08:34:16.217Z,91.42
2022-10-13T08:36:43.836Z,91.05
2022-10-13T08:39:11.674Z,90.27
2022-10-13T08:41:46.225Z,89.98
2022-10-13T08:45:10.953Z,90.01
2022-10-13T08:47:30.605Z,88.22
2022-10-13T08:50:03.681Z,87.77
2022-10-13T08:52:49.951Z,85.63
2022-10-13T08:55:37.486Z,85.79
2022-10-13T08:58:15.144Z,85.58
2022-10-13T09:00:42.498Z,83.86
2022-10-13T09:03:26.399Z,83.04
2022-10-13T09:06:28.551Z,82.13
2022-10-13T09:09:06.063Z,82.43
2022-10-13T09:11:37.821Z,81.17
2022-10-13T09:14:23.712Z,81.63
2022-10-13T09:16:52.851Z,81.57
2022-10-13T09:19:30.308Z,80.17
2022-10-13T09:22:14.709Z,79.41
2022-10-13T09:24:41.640Z,79.56
2022-10-13T09:27:16.400Z,79.13
2022-10-13T09:29:45.128Z,78.93
2022-10-13T09:32:24.001Z,77.72
2022-10-13T09:34:53.122Z,77.88
2022-10-13T09:37:25.755Z,77.59
2022-10-13T09:40:21.126Z,77.42
2022-10-13T09:42:53.516Z,76.87
2022-10-13T09:45:23.351Z,76.88
2022-10-13T09:47:55.684Z,76.58
2022-10-13T09:50:32.209Z,73.41
2022-10-13T09:53:34.436Z,75.94
2022-10-13T09:56:25.803Z,75.23
2022-10-13T09:59:10.611Z,75.37
2022-10-13T10:01:43.975Z,75.72
2022-10-13T10:04:18.473Z,75.78
2022-10-13T10:06:46.808Z,75.88
2022-10-13T10:09:25.836Z,76.04
2022-10-13T10:11:55.073Z,76.01
2022-10-13T10:14:32.286Z,75.84
2022-10-13T10:17:13.064Z,75.52
2022-10-13T10:20:02.065Z,75.59
2022-10-13T10:22:40.645Z,76.00
2022-10-13T10:25:27.687Z,75.50
2022-10-13T10:28:34.050Z,75.30
2022-10-13T10:31:34.560Z,75.53
2022-10-13T10:34:30.043Z,75.59
2022-10-13T10:37:21.224Z,75.54
2022-10-13T10:40:16.968Z,75.53
2022-10-13T10:43:04.977Z,76.00
2022-10-13T10:45:38.102Z,74.92
2022-10-13T10:48:33.514Z,73.92
2022-10-13T10:51:01.441Z,73.84
2022-10-13T10:54:21.840Z,73.36
2022-10-13T10:56:55.753Z,72.26
2022-10-13T10:59:40.369Z,71.01
2022-10-13T11:02:07.160Z,71.01
2022-10-13T11:04:50.149Z,68.97
2022-10-13T11:07:22.994Z,69.94
2022-10-13T11:09:50.732Z,69.76
2022-10-13T11:12:21.082Z,69.42
2022-10-13T11:14:54.034Z,69.02
2022-10-13T11:17:39.145Z,68.05
2022-10-13T11:20:18.197Z,67.77
2022-10-13T11:23:00.201Z,67.28
2022-10-13T11:25:40.175Z,65.99
2022-10-13T11:28:22.839Z,66.20
2022-10-13T11:31:17.645Z,66.06
2022-10-13T11:33:45.855Z,65.18
2022-10-13T11:36:42.124Z,65.47
2022-10-13T11:39:28.122Z,64.53
2022-10-13T11:42:36.657Z,63.97
2022-10-13T11:45:26.129Z,64.58
2022-10-13T11:48:24.890Z,63.59
2022-10-13T11:51:13.949Z,64.26
2022-10-13T11:54:21.550Z,64.40
2022-10-13T11:56:55.384Z,64.56
2022-10-13T11:59:29.440Z,64.91
2022-10-13T12:02:00.513Z,64.70
2022-10-13T12:04:28.891Z,63.27
2022-10-13T12:07:01.565Z,63.47
2022-10-13T12:09:31.583Z,62.94
2022-10-13T12:12:21.097Z,61.92
2022-10-13T12:14:52.951Z,62.30
2022-10-13T12:17:33.084Z,60.50
2022-10-13T12:20:04.736Z,61.23
2022-10-13T12:22:31.554Z,61.58
2022-10-13T12:24:59.747Z,61.32
2022-10-13T12:27:28.841Z,61.45
2022-10-13T12:29:55.920Z,60.77
2022-10-13T12:32:27.261Z,61.27
2022-10-13T12:34:54.099Z,61.53
2022-10-13T12:37:33.671Z,61.24
2022-10-13T12:40:01.601Z,59.10
2022-10-13T12:42:34.121Z,60.04
2022-10-13T12:45:02.653Z,60.70
2022-10-13T12:47:49.230Z,59.89
2022-10-13T12:50:30.858Z,60.98
2022-10-13T12:53:19.497Z,61.09
2022-10-13T12:55:56.517Z,61.16
2022-10-13T12:58:27.893Z,61.86
2022-10-13T13:00:57.890Z,61.78
2022-10-13T13:03:28.537Z,62.17
2022-10-13T13:06:24.263Z,63.05
2022-10-13T13:09:25.792Z,63.09
2022-10-13T13:12:12.857Z,63.18
2022-10-13T13:14:42.893Z,63.42
2022-10-13T13:17:38.848Z,63.69
2022-10-13T13:20:27.268Z,63.06
2022-10-13T13:22:55.139Z,63.15
2022-10-13T13:25:22.442Z,62.89
2022-10-13T13:27:49.396Z,62.07
2022-10-13T13:30:20.136Z,61.34
2022-10-13T13:32:47.263Z,59.90
2022-10-13T13:35:14.800Z,58.77
2022-10-13T13:37:51.127Z,59.98
2022-10-13T13:40:24.645Z,60.35
2022-10-13T13:42:52.149Z,60.14
2022-10-13T13:45:25.552Z,59.90
2022-10-13T13:47:53.065Z,59.60
2022-10-13T13:50:31.064Z,59.61
2022-10-13T13:52:59.216Z,58.42
2022-10-13T13:55:28.230Z,57.75
2022-10-13T13:57:55.492Z,57.31
2022-10-13T14:00:23.428Z,57.54
2022-10-13T14:02:51.006Z,56.85
2022-10-13T14:05:17.786Z,55.70
2022-10-13T14:07:44.696Z,56.18
2022-10-13T14:10:11.853Z,55.92
2022-10-13T14:12:39.180Z,55.34
2022-10-13T14:15:07.109Z,54.45
2022-10-13T14:17:33.930Z,53.88
2022-10-13T14:20:00.733Z,55.17
2022-10-13T14:22:27.843Z,55.45
2022-10-13T14:24:54.677Z,55.40
2022-10-13T14:27:21.801Z,56.02
2022-10-13T14:29:48.804Z,55.72
2022-10-13T14:32:15.908Z,55.70
2022-10-13T14:34:42.774Z,55.64
2022-10-13T14:37:09.582Z,55.94
2022-10-13T14:39:36.368Z,55.01
2022-10-13T14:42:03.548Z,55.10
2022-10-13T14:44:30.349Z,55.25
2022-10-13T14:46:57.238Z,55.29
2022-10-13T14:49:24.389Z,55.72
2022-10-13T14:51:51.293Z,56.22
2022-10-13T14:54:18.196Z,56.71
2022-10-13T14:56:45.224Z,56.94
2022-10-13T14:59:13.081Z,57.24
2022-10-13T15:01:41.707Z,57.80
2022-10-13T15:04:09.014Z,57.98
2022-10-13T15:06:39.233Z,57.80
2022-10-13T15:11:36.781Z,58.32
2022-10-13T15:14:03.772Z,58.29
2022-10-13T15:16:35.489Z,58.47
2022-10-13T15:19:04.384Z,58.85
2022-10-13T15:21:31.493Z,59.16
2022-10-13T15:23:58.298Z,59.36
2022-10-13T15:26:25.213Z,59.33
2022-10-13T15:28:54.138Z,59.63
2022-10-13T15:31:22.500Z,60.01
2022-10-13T15:33:52.569Z,59.83
2022-10-13T15:36:22.311Z,60.16
2022-10-13T15:38:49.331Z,60.52
2022-10-13T15:41:16.541Z,60.62
2022-10-13T15:43:43.559Z,60.95
2022-10-13T15:46:21.558Z,61.50
2022-10-13T15:48:53.442Z,61.63
2022-10-13T15:51:24.548Z,62.06
2022-10-13T15:53:51.463Z,62.15
2022-10-13T15:56:18.629Z,62.45
2022-10-13T15:58:45.994Z,62.80
2022-10-13T16:01:14.667Z,63.41
2022-10-13T16:03:42.478Z,63.51
2022-10-13T16:06:12.806Z,64.03
2022-10-13T16:08:42.618Z,63.96
2022-10-13T16:11:12.297Z,64.36
2022-10-13T16:13:40.206Z,65.28
2022-10-13T16:16:08.052Z,65.05
2022-10-13T16:18:37.662Z,65.25
2022-10-13T16:21:26.057Z,65.51
2022-10-13T16:23:53.019Z,65.88
2022-10-13T16:26:20.127Z,66.12
2022-10-13T16:28:47.306Z,66.40
2022-10-13T16:31:16.624Z,66.41
2022-10-13T16:33:45.471Z,66.55
2022-10-13T16:36:16.499Z,66.63
2022-10-13T16:38:48.048Z,66.79
2022-10-13T16:41:18.439Z,66.97
2022-10-13T16:43:46.783Z,67.09
2022-10-13T16:46:17.338Z,67.11
2022-10-13T16:48:46.369Z,67.62
2022-10-13T16:51:19.957Z,67.82
2022-10-13T16:53:58.711Z,68.07
2022-10-13T16:56:29.118Z,68.48
2022-10-13T16:58:58.487Z,68.50
2022-10-13T17:01:26.351Z,68.73
2022-10-13T17:03:54.329Z,69.11
2022-10-13T17:06:24.547Z,69.11
2022-10-13T17:08:51.586Z,69.34
2022-10-13T17:11:26.016Z,69.89
2022-10-13T17:13:53.472Z,70.14
2022-10-13T17:16:21.129Z,70.70
2022-10-13T17:18:48.006Z,71.07
2022-10-13T17:21:17.385Z,70.98
2022-10-13T17:23:48.544Z,71.06
2022-10-13T17:26:18.131Z,71.37
2022-10-13T17:28:46.008Z,71.71
2022-10-13T17:31:19.965Z,71.99
2022-10-13T17:33:47.813Z,72.40
2022-10-13T17:36:22.300Z,72.58
2022-10-13T17:38:50.229Z,72.88
2022-10-13T17:41:18.624Z,72.93
2022-10-13T17:43:45.634Z,73.13
2022-10-13T17:46:40.822Z,73.23
2022-10-13T17:49:11.882Z,73.24
2022-10-13T17:51:40.634Z,73.30
2022-10-13T17:54:14.462Z,73.37
2022-10-13T17:56:43.276Z,73.69
2022-10-13T17:59:10.477Z,73.59
2022-10-13T18:01:37.954Z,73.92
2022-10-13T18:04:11.322Z,73.82
2022-10-13T18:06:40.781Z,73.89
2022-10-13T18:09:14.656Z,73.79
2022-10-13T18:11:49.432Z,73.99
2022-10-13T18:14:18.703Z,74.10
2022-10-13T18:16:45.865Z,74.28
2022-10-13T18:19:13.483Z,74.42
2022-10-13T18:21:40.498Z,74.36
2022-10-13T18:24:09.711Z,74.38
2022-10-13T18:26:36.578Z,74.58
2022-10-13T18:29:06.292Z,74.68
2022-10-13T18:31:36.104Z,74.30
2022-10-13T18:34:08.002Z,74.62
2022-10-13T18:36:46.712Z,74.62
2022-10-13T18:39:17.158Z,75.02
2022-10-13T18:41:44.239Z,74.88
2022-10-13T18:44:11.099Z,74.78
2022-10-13T18:46:39.719Z,74.77
2022-10-13T18:49:09.303Z,74.81
2022-10-13T18:51:36.689Z,74.89
2022-10-13T18:54:04.661Z,74.82
2022-10-13T18:56:34.096Z,75.11
2022-10-13T18:59:03.354Z,75.23
2022-10-13T19:01:34.406Z,75.46
2022-10-13T19:04:01.441Z,75.50
2022-10-13T19:06:32.012Z,76.05
2022-10-13T19:09:03.062Z,75.92
2022-10-13T19:11:31.254Z,76.05
2022-10-13T19:13:59.706Z,76.39
2022-10-13T19:16:29.531Z,76.70
2022-10-13T19:18:56.431Z,76.40
2022-10-13T19:21:24.556Z,76.68
2022-10-13T19:23:52.097Z,77.02
2022-10-13T19:26:31.605Z,77.27
2022-10-13T19:29:12.009Z,77.26
2022-10-13T19:31:41.567Z,77.52
2022-10-13T19:34:10.732Z,77.76
2022-10-13T19:36:45.029Z,77.37
2022-10-13T19:39:18.690Z,77.68
2022-10-13T19:41:46.910Z,77.92
2022-10-13T19:44:15.056Z,77.51
2022-10-13T19:46:43.818Z,77.85
2022-10-13T19:49:13.312Z,77.96
2022-10-13T19:51:41.916Z,77.89
2022-10-13T19:54:09.812Z,78.10
2022-10-13T19:56:36.976Z,78.11
2022-10-13T19:59:04.686Z,77.81
2022-10-13T20:01:33.138Z,78.17
2022-10-13T20:04:00.301Z,78.38
2022-10-13T20:06:27.198Z,78.20
2022-10-13T20:08:54.014Z,78.31
2022-10-13T20:11:24.147Z,78.35
2022-10-13T20:13:52.637Z,78.47
2022-10-13T20:16:24.644Z,78.57
2022-10-13T20:18:58.147Z,78.62
2022-10-13T20:21:27.052Z,78.86
2022-10-13T20:23:55.068Z,79.22
2022-10-13T20:26:22.599Z,79.18
2022-10-13T20:28:51.245Z,79.14
2022-10-13T20:31:21.812Z,79.17
2022-10-13T20:33:49.869Z,79.22
2022-10-13T20:36:19.775Z,79.62
2022-10-13T20:38:49.509Z,79.79
2022-10-13T20:41:21.067Z,79.89
2022-10-13T20:43:49.212Z,79.84
2022-10-13T20:46:18.242Z,79.96
2022-10-13T20:49:09.206Z,79.91
2022-10-13T20:51:32.161Z,80.09
2022-10-13T20:53:58.957Z,80.29
2022-10-13T20:56:27.007Z,80.37
2022-10-13T20:58:54.404Z,80.31
2022-10-13T21:01:22.914Z,80.42
2022-10-13T21:03:54.476Z,80.49
2022-10-13T21:06:23.818Z,80.38
2022-10-13T21:08:51.705Z,80.46
2022-10-13T21:11:21.694Z,80.46
2022-10-13T21:13:49.438Z,80.13
2022-10-13T21:16:27.423Z,80.51
2022-10-13T21:18:56.249Z,80.55
2022-10-13T21:21:26.706Z,80.50
2022-10-13T21:23:56.545Z,80.74
2022-10-13T21:26:25.746Z,80.80
2022-10-13T21:28:52.935Z,80.66
2022-10-13T21:31:22.436Z,80.70
2022-10-13T21:33:50.280Z,81.12
2022-10-13T21:36:29.638Z,82.22
2022-10-13T21:39:00.135Z,81.32
2022-10-13T21:41:28.042Z,81.59
2022-10-13T21:43:55.457Z,81.68
2022-10-13T21:46:29.938Z,81.68
2022-10-13T21:49:00.951Z,81.87
2022-10-13T21:51:31.853Z,82.03
2022-10-13T21:54:03.320Z,81.69
2022-10-13T21:56:31.824Z,82.08
2022-10-13T21:58:59.637Z,82.06
2022-10-13T22:01:26.812Z,81.89
2022-10-13T22:03:57.856Z,81.99
2022-10-13T22:06:25.566Z,82.08
2022-10-13T22:08:55.223Z,82.16
2022-10-13T22:11:26.588Z,82.31
2022-10-13T22:13:53.886Z,82.36
2022-10-13T22:16:24.612Z,82.38
2022-10-13T22:18:53.965Z,82.46
2022-10-13T22:21:28.322Z,82.58
2022-10-13T22:24:01.113Z,82.59
2022-10-13T22:26:31.632Z,82.69
2022-10-13T22:29:01.170Z,82.67
2022-10-13T22:31:28.929Z,82.78
2022-10-13T22:33:55.737Z,82.82
2022-10-13T22:36:25.189Z,82.94
2022-10-13T22:38:55.468Z,82.92
2022-10-13T22:41:23.402Z,82.93
2022-10-13T22:43:53.064Z,83.23
2022-10-13T22:46:26.859Z,83.59
2022-10-13T22:48:54.309Z,83.47
2022-10-13T22:51:24.207Z,83.44
2022-10-13T22:53:51.594Z,83.56
2022-10-13T22:56:31.435Z,83.70
2022-10-13T22:59:02.170Z,83.53
2022-10-13T23:01:29.607Z,83.92
2022-10-13T23:03:58.673Z,83.89
2022-10-13T23:06:31.628Z,83.68
2022-10-13T23:09:05.329Z,84.06
2022-10-13T23:11:32.369Z,83.82
2022-10-13T23:13:59.273Z,83.75
2022-10-13T23:16:27.364Z,83.81
2022-10-13T23:18:54.691Z,83.79
2022-10-13T23:21:24.615Z,84.03
2022-10-13T23:24:05.200Z,84.42
2022-10-13T23:26:34.468Z,84.33
2022-10-13T23:29:01.928Z,84.85
2022-10-13T23:31:29.340Z,84.38
2022-10-13T23:33:56.409Z,84.84
2022-10-13T23:36:28.325Z,84.80
2022-10-13T23:38:56.901Z,84.64
2022-10-13T23:41:24.739Z,84.66
2022-10-13T23:43:51.552Z,84.63
2022-10-13T23:46:18.788Z,84.68
2022-10-13T23:48:46.021Z,85.00
2022-10-13T23:51:16.675Z,84.96
2022-10-13T23:53:44.232Z,84.75
2022-10-13T23:56:13.145Z,84.61
2022-10-13T23:58:43.035Z,84.73
